Northbridge, MA (01534)

10:42 AM EDT on March 28, 2015 (GMT -0400)
McQuades Lane | | Change Station
CLOSE
Current Station
Personal Weather Station
Location: Northbridge, MA
Elevation: 330 ft
Nearby Weather Stations
Active Advisory: Special Statement

Elev 330 ft 42.16 °N, 71.66 °W | Updated 9 seconds ago

Snow
Snow
34.5 °F
Feels Like 34 °F
N
2.2
Wind Variable Wind from NNW
Gusts 9.2 mph

Today
High -- | Low -- °F
--% Chance of Precip.
Yesterday
High -- | Low -- °F
Precip. -- in
6:36 AM 7:07 PM
Waxing Gibbous, 63% visible
Pressure 29.74 in
Visibility 0.5 miles
Clouds Scattered Clouds 600 ft
Overcast 1100 ft
Windchill 34 °F
Dew Point 31 °F
Humidity 86%
Rainfall 0.04 in
Snow Depth Not available.
UV 0.0 out of 12
Pollen .80 out of 12
Air Quality Not available.
Flu Activity Not available.
SPECI KORH 281438Z 02010KT 1/2SM R11/3000V4000FT SN FZFG SCT006 OVC011 M01/M02 A2974 RMK AO2 P0003 T10061022

More Conditions Fewer Conditions

Pressure 29.74 in
Visibility 0.5 miles
Clouds Scattered Clouds 600 ft
Overcast 1100 ft
Windchill 34 °F
Dew Point 31 °F
Humidity 86%
Rainfall 0.04 in
Snow Depth Not available.
UV 0.0 out of 12
Pollen .80 out of 12
Air Quality Not available.
Flu Activity Not available.
SPECI KORH 281438Z 02010KT 1/2SM R11/3000V4000FT SN FZFG SCT006 OVC011 M01/M02 A2974 RMK AO2 P0003 T10061022

More Conditions Fewer Conditions

10-Day Weather Forecast

Almanac

Astronomy

Mar. 28, 2015 Rise Set
Actual Time
Civil Twilight
Nautical Twilight
Astronomical Twilight
Moon
Length of Visible Light
Length of Day
Tomorrow will be .
, % of the Moon is Illuminated

Today's Extremes

State Highs State Lows

Community

WunderPhotos

Upload Photos

1,808,991 photos uploaded!

WunderBlogs® & News

Nearby

Air Quality

  Air Quality AQ Index Pollutant
Not available.

Snow Depth

Station Depth Elevation

Earthquake Activity

City Distance Mag. Time & Date
Minimum magnitude displayed is 2.5.

Coastal Water Temperatures

Place Temperature

Stations

Nearby Weather Stations

Station Location Temp. Windchill Dew Point Humidity Wind Precip. Elev Updated Type
                   
Special Statement
Statement as of 4:10 AM EDT on March 28, 2015

... Accumulating snowfall is expected today and early tonight...

A low pressure area passing well southeast of southern New
England will produce some snowfall within our region. The most
favored location will be across the central hills of southern New
England... from northeast Connecticut and northwest Rhode Island
into Worcester County Massachusetts. The expected start time will
be from 3 to 6 am. The snow will continue into Saturday.

Travelers should be prepared for lower visibility at times...
along with the possibility of snow-covered roads.

Total snow accumulations of 1 to 3 inches are expected... with
locally higher amounts possible. Please see our winter weather
Page for more details at... weather.Gov/Boston/winter.


Wtb